Time;durP1;ratioP1;P1;durP2;ratioP2;P2;SDS_P1;SDS_P2;PMS_P1;PMS_P2;Temp;Humidity;BMP_temperature;BMP_pressure;BME280_temperature;BME280_humidity;BME280_pressure;Samples;Min_cycle;Max_cycle;Signal;HPM_P1;HPM_P2
2022/03/17 00:01:22;;;;;;;120.30;60.90;;;;;;;2.49;68.84;101601.30;106073;1271;22671;-56
2022/03/17 00:03:54;;;;;;;117.80;63.00;;;;;;;2.49;68.94;101605.80;106036;1271;25339;-53
2022/03/17 00:06:25;;;;;;;114.80;60.70;;;;;;;2.45;69.27;101609.34;105983;1271;25332;-56
2022/03/17 00:08:57;;;;;;;117.30;64.80;;;;;;;2.43;69.13;101616.11;106088;1271;23566;-55
2022/03/17 00:11:29;;;;;;;109.40;59.70;;;;;;;2.42;69.26;101614.22;106031;1271;23988;-56
2022/03/17 00:14:02;;;;;;;104.70;57.50;;;;;;;2.41;69.20;101615.48;106112;1271;22522;-54
2022/03/17 00:16:34;;;;;;;114.20;60.60;;;;;;;2.39;69.14;101615.33;106052;1271;22538;-56
2022/03/17 00:19:08;;;;;;;108.20;58.20;;;;;;;2.38;69.11;101615.70;106225;1271;22550;-57
2022/03/17 00:21:40;;;;;;;117.70;63.10;;;;;;;2.35;68.92;101617.81;106084;1268;22595;-54
2022/03/17 00:24:11;;;;;;;113.00;60.40;;;;;;;2.34;68.93;101617.10;106121;1271;22522;-55
2022/03/17 00:26:43;;;;;;;108.00;58.70;;;;;;;2.32;68.71;101616.86;106180;1270;22678;-55
2022/03/17 00:29:16;;;;;;;99.70;54.60;;;;;;;2.32;68.50;101616.00;106006;1270;22544;-56
2022/03/17 00:31:48;;;;;;;104.50;56.20;;;;;;;2.32;68.48;101609.46;106015;1271;22761;-56
2022/03/17 00:34:20;;;;;;;119.80;59.40;;;;;;;2.30;68.43;101609.23;106122;1271;22680;-55
2022/03/17 00:36:52;;;;;;;106.60;61.20;;;;;;;2.29;68.31;101610.17;106145;1271;26307;-55
2022/03/17 00:39:23;;;;;;;121.10;61.70;;;;;;;2.28;68.40;101614.49;106161;1271;24268;-55
2022/03/17 00:41:55;;;;;;;113.70;59.60;;;;;;;2.24;68.54;101616.61;106007;1270;22565;-55
2022/03/17 00:44:27;;;;;;;110.60;60.50;;;;;;;2.21;68.51;101612.91;105991;1271;25326;-55
2022/03/17 00:46:58;;;;;;;110.80;59.70;;;;;;;2.19;68.46;101616.66;105964;1271;22552;-57
2022/03/17 00:49:30;;;;;;;116.00;59.30;;;;;;;2.18;68.51;101616.20;106038;1271;25346;-56
2022/03/17 00:52:01;;;;;;;111.30;61.40;;;;;;;2.16;68.73;101616.51;106107;1271;22538;-56
2022/03/17 00:54:33;;;;;;;106.70;59.20;;;;;;;2.14;68.77;101620.84;106250;1271;24711;-55
2022/03/17 00:57:05;;;;;;;114.60;60.00;;;;;;;2.10;68.74;101622.93;106110;1271;25595;-56
2022/03/17 00:59:37;;;;;;;110.40;61.30;;;;;;;2.07;69.01;101624.89;106082;1268;25393;-56
2022/03/17 01:02:09;;;;;;;116.80;60.70;;;;;;;2.04;68.87;101622.38;106146;1270;25358;-56
2022/03/17 01:04:40;;;;;;;113.80;59.80;;;;;;;2.01;68.69;101621.09;106019;1271;22525;-53
2022/03/17 01:07:12;;;;;;;118.40;59.90;;;;;;;2.00;68.46;101618.96;106034;1271;22578;-56
2022/03/17 01:09:44;;;;;;;115.20;58.10;;;;;;;1.98;68.65;101615.33;106048;1271;22686;-56
2022/03/17 01:12:15;;;;;;;112.30;59.80;;;;;;;1.96;68.65;101618.63;106186;1271;22499;-56
2022/03/17 01:14:47;;;;;;;115.50;62.00;;;;;;;1.94;68.82;101617.91;106041;1271;24294;-56
2022/03/17 01:17:18;;;;;;;117.20;63.80;;;;;;;1.91;69.01;101616.80;106015;1271;25524;-54
2022/03/17 01:19:49;;;;;;;122.00;65.20;;;;;;;1.90;68.90;101621.04;106125;1271;26777;-54
2022/03/17 01:22:21;;;;;;;123.60;65.30;;;;;;;1.87;69.34;101622.53;106106;1271;25875;-56
2022/03/17 01:24:53;;;;;;;118.60;61.70;;;;;;;1.82;69.59;101621.95;106153;1270;22554;-56
2022/03/17 01:27:25;;;;;;;129.50;65.40;;;;;;;1.77;69.72;101621.61;106120;1271;22907;-55
2022/03/17 01:29:56;;;;;;;134.30;65.20;;;;;;;1.70;69.73;101623.15;106036;1271;22629;-56
2022/03/17 01:32:28;;;;;;;118.80;64.00;;;;;;;1.68;69.78;101623.77;106090;1271;22629;-55
2022/03/17 01:35:00;;;;;;;119.10;64.30;;;;;;;1.63;69.87;101620.91;106232;1271;25381;-56
2022/03/17 01:37:32;;;;;;;111.50;61.40;;;;;;;1.61;69.57;101619.71;105976;1271;25582;-55
2022/03/17 01:40:04;;;;;;;115.90;61.30;;;;;;;1.62;69.40;101617.45;106046;1271;22730;-55
2022/03/17 01:42:36;;;;;;;111.00;61.60;;;;;;;1.63;69.29;101615.17;106154;1271;22535;-56
2022/03/17 01:45:10;;;;;;;119.80;63.20;;;;;;;1.62;69.24;101616.42;106028;1270;24338;-55
2022/03/17 01:47:42;;;;;;;114.60;61.20;;;;;;;1.62;69.20;101612.17;106136;1270;24232;-55
2022/03/17 01:50:16;;;;;;;120.00;63.20;;;;;;;1.62;69.38;101610.44;106147;1271;22615;-55
2022/03/17 01:52:48;;;;;;;115.60;61.80;;;;;;;1.61;69.35;101604.15;106066;1270;25441;-55
2022/03/17 01:55:21;;;;;;;120.30;62.30;;;;;;;1.60;69.28;101595.11;106185;1271;25366;-55
2022/03/17 01:57:53;;;;;;;122.00;64.00;;;;;;;1.58;69.57;101579.05;106082;1271;22548;-56
2022/03/17 02:00:24;;;;;;;118.40;61.50;;;;;;;1.55;69.58;101568.73;106109;1271;22644;-56
2022/03/17 02:02:56;;;;;;;121.60;60.70;;;;;;;1.52;69.54;101561.64;106332;1270;22852;-55
2022/03/17 02:05:28;;;;;;;117.40;62.60;;;;;;;1.51;69.47;101552.84;106103;1271;22532;-53
2022/03/17 02:07:59;;;;;;;125.70;62.30;;;;;;;1.49;69.94;101548.42;105982;1270;25365;-57
2022/03/17 02:13:08;;;;;;;115.80;61.90;;;;;;;1.44;70.13;101539.81;106006;1271;25326;-54
2022/03/17 02:13:24;;;;;;;122.60;63.10;;;;;;;1.40;70.58;101538.94;105897;1270;25245;-56
2022/03/17 02:16:02;;;;;;;124.70;60.90;;;;;;;1.37;70.91;101536.09;106099;1270;25210;-56
2022/03/17 02:18:33;;;;;;;120.70;62.90;;;;;;;1.37;71.39;101533.10;106077;1271;24227;-54
2022/03/17 02:21:05;;;;;;;131.00;64.20;;;;;;;1.38;71.88;101533.11;106024;1271;22547;-55
2022/03/17 02:26:31;;;;;;;131.70;67.30;;;;;;;1.39;72.26;101562.43;105956;1271;22570;-56
2022/03/17 02:29:03;;;;;;;126.00;63.70;;;;;;;1.40;72.52;101571.71;105965;1270;22525;-56
2022/03/17 02:31:35;;;;;;;120.00;62.30;;;;;;;1.39;72.61;101583.73;106021;1271;25251;-56
2022/03/17 02:34:08;;;;;;;129.50;70.00;;;;;;;1.38;72.86;101594.82;106062;1271;22535;-57
2022/03/17 02:36:48;;;;;;;126.30;68.30;;;;;;;1.36;72.89;101595.13;106052;1270;22531;-55
2022/03/17 02:39:21;;;;;;;133.40;67.90;;;;;;;1.36;72.79;101596.78;105997;1271;22529;-53
2022/03/17 02:41:54;;;;;;;128.60;67.00;;;;;;;1.35;72.84;101599.68;106078;1271;24227;-55
2022/03/17 02:44:26;;;;;;;133.80;66.50;;;;;;;1.31;72.70;101602.09;105821;1269;380180;-58
2022/03/17 02:46:57;;;;;;;131.70;66.10;;;;;;;1.29;72.62;101609.37;106119;1271;22579;-53
2022/03/17 02:49:29;;;;;;;128.80;66.60;;;;;;;1.24;72.64;101610.67;106061;1271;22622;-56
2022/03/17 02:52:01;;;;;;;127.40;67.80;;;;;;;1.23;72.59;101613.51;106211;1271;22531;-56
2022/03/17 02:54:32;;;;;;;132.90;68.20;;;;;;;1.22;72.60;101619.39;106094;1271;22525;-54
2022/03/17 02:57:07;;;;;;;127.90;66.20;;;;;;;1.19;72.38;101614.73;106061;1270;26278;-55
2022/03/17 02:59:38;;;;;;;125.40;64.80;;;;;;;1.20;72.19;101618.51;106032;1271;22664;-54
2022/03/17 03:02:09;;;;;;;124.60;64.30;;;;;;;1.17;72.36;101622.27;106072;1270;22525;-55
2022/03/17 03:04:41;;;;;;;123.60;64.10;;;;;;;1.14;72.31;101624.45;106029;1270;24261;-54
2022/03/17 03:07:13;;;;;;;126.40;64.90;;;;;;;1.13;72.25;101625.61;105992;1270;23190;-57
2022/03/17 03:09:44;;;;;;;121.00;63.90;;;;;;;1.11;72.32;101634.31;106042;1268;22943;-57
2022/03/17 03:12:16;;;;;;;112.80;61.10;;;;;;;1.05;72.24;101642.84;106038;1271;22543;-56
2022/03/17 03:14:47;;;;;;;127.70;64.30;;;;;;;1.01;72.22;101645.86;106008;1270;23087;-57
2022/03/17 03:17:20;;;;;;;122.40;65.60;;;;;;;1.00;72.36;101646.96;106077;1271;22528;-55
2022/03/17 03:19:52;;;;;;;116.20;61.70;;;;;;;0.96;72.18;101652.42;106033;1271;25669;-56
2022/03/17 03:22:28;;;;;;;123.30;62.80;;;;;;;0.95;71.94;101648.65;106224;1270;25248;-53
2022/03/17 03:25:00;;;;;;;128.10;62.50;;;;;;;0.97;71.87;101647.95;106015;1271;24309;-56
2022/03/17 03:27:31;;;;;;;118.00;62.20;;;;;;;0.97;71.60;101641.75;106185;1271;22621;-54
2022/03/17 03:30:03;;;;;;;119.60;63.90;;;;;;;0.99;71.75;101643.96;105988;1271;25400;-56
2022/03/17 03:32:34;;;;;;;127.20;65.90;;;;;;;0.97;72.10;101641.75;106006;1271;22684;-54
2022/03/17 03:37:52;;;;;;;142.80;70.00;;;;;;;0.92;72.06;101641.86;105956;1271;24259;-58
2022/03/17 03:40:24;;;;;;;131.20;66.20;;;;;;;0.93;72.08;101645.17;106275;1271;23272;-56
2022/03/17 03:42:55;;;;;;;124.90;65.80;;;;;;;0.91;72.30;101643.58;106005;1271;22536;-56
2022/03/17 03:45:26;;;;;;;127.40;68.00;;;;;;;0.89;72.12;101642.30;106048;1270;25528;-56
2022/03/17 03:47:59;;;;;;;127.40;67.90;;;;;;;0.89;72.29;101641.83;106014;1271;25323;-55
2022/03/17 03:50:31;;;;;;;127.40;68.50;;;;;;;0.87;72.60;101640.88;105998;1271;22534;-53
2022/03/17 03:53:03;;;;;;;132.10;69.20;;;;;;;0.83;72.54;101640.60;106132;1270;22677;-55
2022/03/17 03:55:34;;;;;;;138.60;69.60;;;;;;;0.81;72.88;101635.02;106067;1271;24269;-54
2022/03/17 03:58:05;;;;;;;123.70;65.90;;;;;;;0.80;73.03;101632.10;106198;1271;22528;-54
2022/03/17 04:00:37;;;;;;;135.90;72.10;;;;;;;0.78;73.21;101637.42;106066;1271;24334;-53
2022/03/17 04:03:08;;;;;;;134.80;73.20;;;;;;;0.78;73.34;101643.00;106159;1270;22710;-56
2022/03/17 04:05:40;;;;;;;139.90;71.80;;;;;;;0.76;73.41;101644.95;106088;1270;25439;-54
2022/03/17 04:08:11;;;;;;;140.90;71.00;;;;;;;0.78;73.60;101649.36;106124;1271;22550;-54
2022/03/17 04:10:42;;;;;;;136.70;68.10;;;;;;;0.78;73.70;101649.52;106092;1271;22608;-55
2022/03/17 04:13:14;;;;;;;134.90;71.40;;;;;;;0.79;73.76;101658.96;106066;1271;22541;-53
2022/03/17 04:15:46;;;;;;;143.90;71.50;;;;;;;0.80;73.83;101660.45;106115;1271;22524;-56
2022/03/17 04:18:17;;;;;;;139.00;73.50;;;;;;;0.80;73.78;101662.59;106125;1270;22550;-57
2022/03/17 04:20:48;;;;;;;131.00;71.00;;;;;;;0.81;73.94;101669.17;106081;1271;24398;-57
2022/03/17 04:23:21;;;;;;;132.70;71.40;;;;;;;0.82;74.13;101677.98;106056;1271;25182;-57
2022/03/17 04:25:52;;;;;;;132.20;72.30;;;;;;;0.82;74.31;101683.48;106079;1269;22567;-53
2022/03/17 04:28:24;;;;;;;132.30;70.70;;;;;;;0.81;74.28;101687.32;106095;1271;22769;-56
2022/03/17 04:30:55;;;;;;;132.80;69.80;;;;;;;0.80;74.29;101689.75;106118;1271;22528;-57
2022/03/17 04:33:27;;;;;;;133.90;67.80;;;;;;;0.81;74.00;101691.88;106094;1270;23447;-57
2022/03/17 04:35:58;;;;;;;131.20;66.00;;;;;;;0.82;73.93;101692.67;106117;1270;22544;-56
2022/03/17 04:38:29;;;;;;;129.60;68.60;;;;;;;0.83;73.91;101691.10;106094;1271;25522;-54
2022/03/17 04:41:01;;;;;;;122.10;65.40;;;;;;;0.83;73.68;101690.25;106118;1269;24031;-57
2022/03/17 04:43:32;;;;;;;124.40;65.30;;;;;;;0.83;73.79;101690.02;106537;1269;26489;-53
2022/03/17 04:46:04;;;;;;;127.00;66.40;;;;;;;0.85;74.06;101692.53;106110;1270;22531;-56
2022/03/17 04:48:36;;;;;;;134.20;65.70;;;;;;;0.84;74.42;101693.48;106274;1271;25522;-56
2022/03/17 04:51:08;;;;;;;127.30;63.20;;;;;;;0.84;74.66;101698.52;106069;1271;24262;-53
2022/03/17 04:53:39;;;;;;;121.10;64.50;;;;;;;0.85;74.69;101703.45;106247;1271;24424;-56
2022/03/17 04:56:14;;;;;;;122.80;67.00;;;;;;;0.86;74.94;101710.48;106211;1270;23061;-53
2022/03/17 04:58:46;;;;;;;126.80;64.00;;;;;;;0.86;75.19;101717.61;106195;1268;25320;-55
2022/03/17 05:01:18;;;;;;;122.00;66.80;;;;;;;0.85;75.08;101722.31;106083;1268;22521;-56
2022/03/17 05:03:49;;;;;;;133.30;68.70;;;;;;;0.85;75.05;101722.63;106127;1271;23008;-56
2022/03/17 05:06:21;;;;;;;132.00;68.30;;;;;;;0.87;75.11;101726.90;106019;1268;22665;-56
2022/03/17 05:08:53;;;;;;;129.40;69.30;;;;;;;0.88;75.28;101728.47;106071;1270;24524;-56
2022/03/17 05:11:24;;;;;;;120.90;64.80;;;;;;;0.88;75.35;101731.38;106097;1268;23016;-57
2022/03/17 05:13:56;;;;;;;124.30;65.40;;;;;;;0.89;75.44;101735.86;106204;1268;22626;-56
2022/03/17 05:16:27;;;;;;;125.80;64.10;;;;;;;0.90;75.28;101741.92;106258;1268;22564;-59
2022/03/17 05:18:59;;;;;;;118.60;60.10;;;;;;;0.91;75.31;101746.17;106517;1268;22616;-55
2022/03/17 05:21:34;;;;;;;132.70;67.30;;;;;;;0.94;75.43;101751.16;106359;1268;25401;-57
2022/03/17 05:24:06;;;;;;;118.20;62.30;;;;;;;0.96;75.54;101754.32;106244;1270;25386;-57
2022/03/17 05:26:38;;;;;;;127.20;64.50;;;;;;;0.98;75.39;101759.61;106157;1270;25877;-57
2022/03/17 05:29:12;;;;;;;119.40;64.00;;;;;;;0.99;75.51;101762.84;106092;1271;24425;-57
2022/03/17 05:31:44;;;;;;;126.80;64.90;;;;;;;1.02;75.60;101764.20;106116;1271;22545;-58
2022/03/17 05:34:15;;;;;;;122.20;63.20;;;;;;;1.05;75.47;101769.89;105935;1270;22525;-58
2022/03/17 05:36:46;;;;;;;128.20;67.20;;;;;;;1.09;75.46;101774.33;106076;1271;24220;-58
2022/03/17 05:39:18;;;;;;;122.70;64.30;;;;;;;1.13;75.50;101777.13;106042;1268;22531;-58
2022/03/17 05:41:49;;;;;;;130.60;63.70;;;;;;;1.15;75.25;101776.36;106236;1270;24232;-58
2022/03/17 05:44:21;;;;;;;127.60;68.10;;;;;;;1.17;75.35;101775.84;106706;1270;22544;-58
2022/03/17 05:46:52;;;;;;;129.60;64.00;;;;;;;1.20;75.72;101777.59;105966;1270;26896;-57
2022/03/17 05:49:23;;;;;;;123.70;67.60;;;;;;;1.22;75.95;101777.84;106097;1271;24800;-57
2022/03/17 05:51:55;;;;;;;137.60;68.60;;;;;;;1.25;75.85;101779.83;106100;1270;24392;-57
2022/03/17 05:54:26;;;;;;;137.80;69.90;;;;;;;1.29;75.98;101783.09;106338;1270;22612;-55
2022/03/17 05:56:58;;;;;;;150.30;76.00;;;;;;;1.34;76.02;101786.05;106177;1270;22623;-57
2022/03/17 05:59:30;;;;;;;158.60;75.80;;;;;;;1.38;76.16;101788.30;106293;1270;25251;-58
2022/03/17 06:02:05;;;;;;;152.00;77.50;;;;;;;1.42;76.20;101792.73;106269;1271;22527;-59
2022/03/17 06:04:37;;;;;;;165.30;79.50;;;;;;;1.48;76.24;101797.73;106154;1270;24333;-57
2022/03/17 06:07:09;;;;;;;161.80;77.30;;;;;;;1.53;76.37;101794.08;106035;1270;22550;-58
2022/03/17 06:09:41;;;;;;;159.20;76.50;;;;;;;1.58;76.39;101796.25;106135;1271;25530;-58
2022/03/17 06:12:15;;;;;;;155.90;74.10;;;;;;;1.64;76.40;101797.88;106059;1271;22659;-58
2022/03/17 06:14:46;;;;;;;163.50;79.70;;;;;;;1.71;76.31;101798.48;106058;1270;22529;-57
2022/03/17 06:17:19;;;;;;;151.40;75.50;;;;;;;1.79;76.50;101802.95;106053;1271;24411;-57
2022/03/17 06:19:51;;;;;;;155.40;75.80;;;;;;;1.86;76.55;101804.90;106036;1271;22646;-57
2022/03/17 06:22:22;;;;;;;143.60;73.00;;;;;;;1.94;76.59;101803.07;106136;1269;22564;-57
2022/03/17 06:24:54;;;;;;;135.90;69.80;;;;;;;2.02;76.76;101809.17;106193;1270;22780;-59
2022/03/17 06:27:26;;;;;;;133.20;68.40;;;;;;;2.12;76.75;101812.94;106418;1269;24380;-58
2022/03/17 06:29:57;;;;;;;122.80;64.40;;;;;;;2.22;76.89;101820.65;106026;1270;22555;-58
2022/03/17 06:32:29;;;;;;;119.40;63.80;;;;;;;2.31;76.89;101818.73;106025;1270;22525;-56
2022/03/17 06:35:00;;;;;;;129.30;68.80;;;;;;;2.42;77.04;101824.16;106015;1270;22550;-58
2022/03/17 06:37:32;;;;;;;121.30;64.00;;;;;;;2.53;77.06;101831.92;106001;1271;22526;-58
2022/03/17 06:40:04;;;;;;;118.50;65.60;;;;;;;2.66;77.27;101833.17;106040;1270;25460;-59
2022/03/17 06:42:36;;;;;;;130.10;67.90;;;;;;;2.79;77.28;101836.47;106108;1270;25556;-58
2022/03/17 06:45:10;;;;;;;137.20;72.60;;;;;;;2.93;77.37;101839.52;106093;1270;22525;-59
2022/03/17 06:47:42;;;;;;;127.90;68.80;;;;;;;3.06;77.09;101841.62;106037;1270;22547;-57
2022/03/17 06:50:15;;;;;;;121.90;65.00;;;;;;;3.17;76.82;101845.20;106147;1271;22584;-57
2022/03/17 06:52:47;;;;;;;138.00;68.50;;;;;;;3.28;76.56;101842.08;106082;1270;25459;-58
2022/03/17 06:55:19;;;;;;;135.70;66.90;;;;;;;3.40;76.54;101844.70;106145;1270;25372;-58
2022/03/17 06:57:51;;;;;;;132.20;67.80;;;;;;;3.49;76.35;101841.80;106109;1270;22544;-58
2022/03/17 07:00:23;;;;;;;121.60;64.40;;;;;;;3.59;76.57;101846.01;106006;1270;24250;-58
2022/03/17 07:02:55;;;;;;;129.70;63.60;;;;;;;3.70;76.44;101844.91;106034;1270;26613;-58
2022/03/17 07:05:27;;;;;;;112.20;59.30;;;;;;;3.80;76.28;101839.07;106053;1270;24055;-56
2022/03/17 07:07:58;;;;;;;118.50;62.20;;;;;;;3.91;76.11;101837.50;106042;1271;22554;-57
2022/03/17 07:10:30;;;;;;;115.60;61.30;;;;;;;4.01;76.04;101840.02;105926;1268;24350;-58
2022/03/17 07:13:01;;;;;;;118.30;63.60;;;;;;;4.10;75.91;101837.33;105905;1270;24253;-58
2022/03/17 07:15:34;;;;;;;114.80;62.10;;;;;;;4.20;75.78;101835.50;106963;1270;22567;-59
2022/03/17 07:18:06;;;;;;;112.80;61.10;;;;;;;4.31;75.88;101835.95;106030;1270;25326;-58
2022/03/17 07:20:37;;;;;;;108.00;58.70;;;;;;;4.43;75.66;101838.30;105989;1270;24428;-57
2022/03/17 07:23:09;;;;;;;110.20;60.60;;;;;;;4.52;75.32;101843.09;106192;1270;24419;-58
2022/03/17 07:25:41;;;;;;;105.40;58.40;;;;;;;4.61;75.14;101845.44;106342;1270;25551;-58
2022/03/17 07:28:15;;;;;;;106.10;59.20;;;;;;;4.70;74.81;101843.27;106221;1270;23543;-56
2022/03/17 07:30:48;;;;;;;103.30;57.50;;;;;;;4.78;74.61;101842.85;106087;1270;24338;-55
2022/03/17 07:33:20;;;;;;;102.10;58.40;;;;;;;4.87;74.51;101842.66;106061;1271;24266;-57
2022/03/17 07:35:53;;;;;;;103.70;55.50;;;;;;;4.94;74.28;101840.73;106648;1261;22561;-57
2022/03/17 07:38:24;;;;;;;110.00;60.20;;;;;;;5.02;74.16;101841.65;106922;1268;22532;-54
2022/03/17 07:40:56;;;;;;;123.70;72.20;;;;;;;5.09;74.26;101839.64;106160;1271;22540;-56
2022/03/17 07:43:29;;;;;;;110.30;63.10;;;;;;;5.17;74.05;101836.35;106164;1271;22678;-58
2022/03/17 07:46:02;;;;;;;106.70;60.00;;;;;;;5.23;74.00;101839.72;106149;1270;24551;-56
2022/03/17 07:48:34;;;;;;;108.30;58.80;;;;;;;5.30;73.71;101835.81;106185;1270;22626;-56
2022/03/17 07:51:05;;;;;;;114.40;60.90;;;;;;;5.37;73.60;101836.24;106074;1271;23912;-55
2022/03/17 07:53:38;;;;;;;107.10;61.20;;;;;;;5.45;73.66;101836.50;106053;1271;23246;-56
2022/03/17 07:56:12;;;;;;;109.90;60.80;;;;;;;5.52;73.54;101838.27;106141;1271;25287;-53
2022/03/17 07:58:44;;;;;;;114.70;62.80;;;;;;;5.61;73.36;101844.08;106158;1270;24484;-60
2022/03/17 08:01:17;;;;;;;114.20;61.10;;;;;;;5.68;73.26;101845.05;106169;1269;25304;-57
2022/03/17 08:03:49;;;;;;;111.50;62.00;;;;;;;5.76;73.19;101848.00;106166;1271;26228;-55
2022/03/17 08:06:22;;;;;;;116.00;62.90;;;;;;;5.86;73.11;101850.55;106029;1271;22557;-55
2022/03/17 08:08:55;;;;;;;125.10;70.30;;;;;;;5.96;72.88;101850.17;106117;1271;25640;-55
2022/03/17 08:11:28;;;;;;;113.20;64.80;;;;;;;6.05;72.75;101852.77;106127;1270;22541;-55
2022/03/17 08:13:59;;;;;;;116.80;63.70;;;;;;;6.14;72.38;101855.16;106143;1270;22715;-53
2022/03/17 08:16:31;;;;;;;116.10;64.50;;;;;;;6.23;72.22;101851.52;106159;1271;22536;-55
2022/03/17 08:19:02;;;;;;;119.70;66.00;;;;;;;6.31;72.04;101854.52;106114;1271;24390;-57
2022/03/17 08:21:33;;;;;;;115.80;63.20;;;;;;;6.39;71.86;101852.93;106219;1271;24719;-52
2022/03/17 08:24:06;;;;;;;113.50;64.80;;;;;;;6.47;71.58;101854.29;106383;1271;23956;-56
2022/03/17 08:26:39;;;;;;;111.60;65.20;;;;;;;6.54;71.40;101851.36;106192;1271;22594;-53
2022/03/17 08:29:13;;;;;;;114.60;65.70;;;;;;;6.61;71.32;101850.41;106184;1271;22772;-58
2022/03/17 08:31:45;;;;;;;113.50;62.60;;;;;;;6.69;71.25;101853.58;106079;1271;22559;-57
2022/03/17 08:34:17;;;;;;;117.80;64.20;;;;;;;6.78;71.12;101854.80;106154;1270;22529;-57
2022/03/17 08:36:53;;;;;;;108.90;60.60;;;;;;;6.85;70.88;101852.73;106241;1271;22557;-55
2022/03/17 08:39:24;;;;;;;106.00;61.30;;;;;;;6.93;70.48;101854.31;106120;1271;22526;-56
2022/03/17 08:41:57;;;;;;;110.60;62.70;;;;;;;7.00;70.49;101845.11;106099;1270;25918;-56
2022/03/17 08:44:28;;;;;;;102.30;58.40;;;;;;;7.06;70.13;101845.50;106227;1271;25504;-57
2022/03/17 08:49:51;;;;;;;106.90;60.50;;;;;;;7.20;69.81;101844.69;106039;1270;24374;-54
2022/03/17 08:52:22;;;;;;;95.50;56.30;;;;;;;7.28;69.58;101848.79;106149;1270;22525;-55
2022/03/17 08:54:54;;;;;;;103.80;58.40;;;;;;;7.36;69.73;101845.73;106224;1271;22848;-54
2022/03/17 08:57:27;;;;;;;102.90;56.40;;;;;;;7.44;69.40;101850.79;106328;1269;22550;-52
2022/03/17 09:00:06;;;;;;;106.60;59.80;;;;;;;7.52;68.97;101849.39;106202;1271;25229;-53
2022/03/17 09:02:38;;;;;;;109.00;62.00;;;;;;;7.59;68.78;101853.67;106070;1271;25518;-57
2022/03/17 09:05:11;;;;;;;98.50;55.40;;;;;;;7.66;68.53;101851.02;106241;1271;22576;-56
2022/03/17 09:07:43;;;;;;;94.10;55.40;;;;;;;7.75;68.44;101852.15;106171;1271;22600;-53
2022/03/17 09:10:15;;;;;;;93.90;55.10;;;;;;;7.80;67.93;101847.77;106238;1270;25633;-56
2022/03/17 09:12:46;;;;;;;104.50;56.00;;;;;;;7.87;67.78;101845.84;106176;1271;24228;-54
2022/03/17 09:15:18;;;;;;;103.30;58.50;;;;;;;7.93;67.83;101847.64;106185;1270;22555;-56
2022/03/17 09:17:49;;;;;;;93.00;53.60;;;;;;;8.00;67.66;101850.94;106164;1270;22531;-54
2022/03/17 09:20:22;;;;;;;89.80;52.50;;;;;;;8.08;67.66;101851.84;106048;1271;22540;-55
2022/03/17 09:22:56;;;;;;;88.90;50.70;;;;;;;8.15;67.21;101855.13;106080;1271;22545;-52
2022/03/17 09:25:28;;;;;;;91.50;51.60;;;;;;;8.24;66.93;101856.96;106251;1270;24392;-58
2022/03/17 09:28:00;;;;;;;88.40;50.50;;;;;;;8.32;66.41;101857.41;106144;1270;26484;-55
2022/03/17 09:30:34;;;;;;;95.00;51.70;;;;;;;8.39;66.36;101857.92;106120;1270;25505;-53
2022/03/17 09:33:07;;;;;;;94.50;54.10;;;;;;;8.47;66.34;101857.52;106187;1271;24790;-54
2022/03/17 09:35:41;;;;;;;93.90;50.80;;;;;;;8.57;65.89;101864.19;106146;1270;22834;-54
2022/03/17 09:38:13;;;;;;;82.30;48.70;;;;;;;8.64;65.50;101860.63;106126;1271;22713;-53
2022/03/17 09:40:45;;;;;;;81.70;46.80;;;;;;;8.70;64.92;101865.85;106193;1270;22681;-56
2022/03/17 09:43:21;;;;;;;86.50;47.30;;;;;;;8.77;64.85;101864.13;106119;1271;22541;-54
2022/03/17 09:45:56;;;;;;;81.10;47.00;;;;;;;8.84;64.70;101864.53;106196;1270;25393;-53
2022/03/17 09:48:30;;;;;;;76.40;44.80;;;;;;;8.92;64.54;101864.05;106182;1270;23055;-56
2022/03/17 09:51:03;;;;;;;75.50;42.20;;;;;;;9.00;64.25;101863.27;106259;1271;24256;-55
2022/03/17 09:53:35;;;;;;;69.80;40.00;;;;;;;9.06;63.60;101859.16;106186;1270;24212;-56
2022/03/17 09:56:07;;;;;;;73.50;40.00;;;;;;;9.10;62.93;101856.92;106206;1270;26511;-55
2022/03/17 09:58:40;;;;;;;73.30;40.60;;;;;;;9.13;62.28;101853.49;106176;1271;24225;-55
2022/03/17 10:01:11;;;;;;;67.70;36.80;;;;;;;9.17;62.15;101851.98;106159;1271;24191;-57
2022/03/17 10:03:43;;;;;;;68.30;37.40;;;;;;;9.21;61.96;101854.61;106123;1270;22520;-56
2022/03/17 10:06:16;;;;;;;58.20;33.40;;;;;;;9.26;61.68;101854.11;106120;1271;22606;-63
2022/03/17 10:08:49;;;;;;;62.90;34.10;;;;;;;9.33;61.44;101851.89;106075;1271;22539;-58
2022/03/17 10:11:27;;;;;;;56.80;32.00;;;;;;;9.39;60.80;101849.84;106162;1271;22601;-58
2022/03/17 10:14:00;;;;;;;57.80;31.40;;;;;;;9.44;60.19;101856.16;106135;1271;25299;-60
2022/03/17 10:16:33;;;;;;;61.90;31.20;;;;;;;9.49;60.06;101854.40;106145;1269;24392;-57
2022/03/17 10:19:08;;;;;;;58.90;29.50;;;;;;;9.52;59.65;101857.98;106104;1270;22551;-58
2022/03/17 10:21:41;;;;;;;52.60;27.70;;;;;;;9.57;59.57;101852.85;106109;1270;22666;-56
2022/03/17 10:24:13;;;;;;;45.10;24.80;;;;;;;9.63;59.05;101853.10;106128;1271;22758;-57
2022/03/17 10:26:46;;;;;;;45.00;23.90;;;;;;;9.68;57.91;101852.50;106234;1271;25478;-56
2022/03/17 10:29:19;;;;;;;45.90;23.90;;;;;;;9.73;57.21;101852.95;106136;1271;24237;-58
2022/03/17 10:32:04;;;;;;;46.00;22.40;;;;;;;9.77;57.06;101855.80;106384;1271;23926;-57
2022/03/17 10:34:56;;;;;;;44.80;23.00;;;;;;;9.83;56.47;101861.15;106043;1271;26670;-57
2022/03/17 10:37:30;;;;;;;42.60;22.60;;;;;;;9.89;56.41;101856.89;106156;1271;22544;-54
2022/03/17 10:40:11;;;;;;;47.50;22.30;;;;;;;9.94;56.46;101854.44;106109;1270;22573;-57
2022/03/17 10:42:43;;;;;;;44.80;21.30;;;;;;;10.00;55.94;101854.20;106211;1271;22544;-58
2022/03/17 10:45:19;;;;;;;38.10;20.60;;;;;;;10.05;55.20;101856.61;106243;1271;22532;-58
2022/03/17 10:47:50;;;;;;;37.90;18.10;;;;;;;10.10;54.53;101862.34;106144;1271;22544;-58
2022/03/17 10:50:25;;;;;;;38.20;16.70;;;;;;;10.15;53.85;101861.20;106137;1271;24338;-58
2022/03/17 10:53:00;;;;;;;32.30;15.30;;;;;;;10.18;53.50;101856.64;106201;1270;24202;-56
2022/03/17 10:55:33;;;;;;;36.90;16.90;;;;;;;10.22;53.07;101850.26;106158;1270;24350;-56
2022/03/17 10:58:16;;;;;;;31.20;15.50;;;;;;;10.26;52.68;101851.02;106175;1270;24676;-54
2022/03/17 11:00:53;;;;;;;32.00;15.60;;;;;;;10.29;52.11;101852.39;106189;1271;22571;-58
2022/03/17 11:03:26;;;;;;;31.40;15.10;;;;;;;10.32;52.28;101849.17;106444;1270;25268;-57
2022/03/17 11:05:58;;;;;;;32.80;16.20;;;;;;;10.36;51.91;101851.39;106056;1271;24283;-58
2022/03/17 11:08:31;;;;;;;32.50;16.30;;;;;;;10.40;51.58;101852.48;106432;1270;25522;-58
2022/03/17 11:11:03;;;;;;;36.70;17.40;;;;;;;10.44;51.34;101855.89;106222;1270;25394;-57
2022/03/17 11:13:35;;;;;;;36.40;18.50;;;;;;;10.47;50.96;101855.25;106323;1271;24899;-58
2022/03/17 11:16:11;;;;;;;40.30;19.90;;;;;;;10.52;51.12;101856.40;106295;1270;22684;-58
2022/03/17 11:18:44;;;;;;;35.70;18.10;;;;;;;10.56;50.58;101850.38;106231;1270;22616;-56
2022/03/17 11:21:21;;;;;;;39.80;19.20;;;;;;;10.61;50.49;101851.77;106272;1271;22568;-58
2022/03/17 11:24:01;;;;;;;44.00;20.40;;;;;;;10.64;50.49;101849.99;106042;1270;22684;-58
2022/03/17 11:26:35;;;;;;;40.90;20.70;;;;;;;10.68;50.72;101854.20;106061;1271;25643;-59
2022/03/17 11:29:09;;;;;;;45.10;24.80;;;;;;;10.74;50.96;101853.10;106260;1271;22738;-56
2022/03/17 11:32:08;;;;;;;41.90;22.30;;;;;;;10.80;50.73;101849.31;106156;1269;25636;-57
2022/03/17 11:34:48;;;;;;;37.20;20.20;;;;;;;10.87;49.95;101849.21;105607;1275;22641;-57